Time;durP1;ratioP1;P1;durP2;ratioP2;P2;SDS_P1;SDS_P2;PMS_P1;PMS_P2;Temp;Humidity;BMP_temperature;BMP_pressure;BME280_temperature;BME280_humidity;BME280_pressure;Samples;Min_cycle;Max_cycle;Signal;HPM_P1;HPM_P2
2021/05/16 00:00:53;;;;;;;;;;;;;;;12.47;68.94;96378.94;1698456;85;20172;-79
2021/05/16 00:03:19;;;;;;;;;;;;;;;12.47;68.97;96376.29;1699884;83;20170;-78
2021/05/16 00:05:46;;;;;;;;;;;;;;;12.46;69.19;96375.10;1728014;83;20169;-78
2021/05/16 00:08:14;;;;;;;;;;;;;;;12.44;69.40;96367.34;1729186;83;20478;-77
2021/05/16 00:10:41;;;;;;;;;;;;;;;12.45;68.69;96373.44;1729428;83;20502;-78
2021/05/16 00:13:07;;;;;;;;;;;;;;;12.44;68.43;96369.12;1729610;83;20158;-78
2021/05/16 00:15:34;;;;;;;;;;;;;;;12.41;68.98;96368.95;1723751;83;20158;-76
2021/05/16 00:18:00;;;;;;;;;;;;;;;12.39;68.88;96364.30;1700015;83;20186;-78
2021/05/16 00:20:30;;;;;;;;;;;;;;;12.37;69.30;96368.09;1700537;83;20162;-81
2021/05/16 00:22:57;;;;;;;;;;;;;;;12.34;69.29;96369.23;1700161;84;20166;-80
2021/05/16 00:25:24;;;;;;;;;;;;;;;12.32;70.43;96365.91;1728222;83;20169;-80
2021/05/16 00:27:51;;;;;;;;;;;;;;;12.30;69.67;96361.25;1721496;82;20484;-80
2021/05/16 00:30:19;;;;;;;;;;;;;;;12.27;69.66;96365.55;1691837;83;20143;-80
2021/05/16 00:32:46;;;;;;;;;;;;;;;12.25;68.11;96368.82;1700620;84;20222;-79
2021/05/16 00:35:16;;;;;;;;;;;;;;;12.22;68.54;96369.11;1700873;84;20518;-80
2021/05/16 00:37:42;;;;;;;;;;;;;;;12.22;69.40;96375.72;1700749;84;20511;-79
2021/05/16 00:40:08;;;;;;;;;;;;;;;12.21;69.60;96369.61;1700894;84;20161;-79
2021/05/16 00:42:34;;;;;;;;;;;;;;;12.21;70.08;96370.09;1700782;84;20142;-79
2021/05/16 00:45:13;;;;;;;;;;;;;;;12.19;69.67;96364.97;1700914;84;20142;-79
2021/05/16 00:47:48;;;;;;;;;;;;;;;12.21;70.08;96358.20;1700898;84;20150;-80
2021/05/16 00:50:17;;;;;;;;;;;;;;;12.23;70.04;96361.05;1665871;85;20164;-81
2021/05/16 00:52:43;;;;;;;;;;;;;;;12.26;70.01;96362.05;1700757;84;20234;-78
2021/05/16 00:55:12;;;;;;;;;;;;;;;12.29;69.28;96366.23;1672637;86;20592;-80
2021/05/16 00:57:39;;;;;;;;;;;;;;;12.33;69.93;96368.89;1702871;83;20166;-80
2021/05/16 01:00:08;;;;;;;;;;;;;;;12.35;69.81;96373.53;1701125;83;20245;-79
2021/05/16 01:02:34;;;;;;;;;;;;;;;12.39;69.53;96367.45;1701126;84;20178;-80
2021/05/16 01:05:01;;;;;;;;;;;;;;;12.38;69.69;96365.79;1700891;84;20186;-80
2021/05/16 01:07:27;;;;;;;;;;;;;;;12.41;69.38;96368.95;1701493;84;20166;-80
2021/05/16 01:09:54;;;;;;;;;;;;;;;12.44;69.59;96367.81;1702846;84;20158;-78
2021/05/16 01:12:20;;;;;;;;;;;;;;;12.52;69.52;96367.05;1707913;83;20216;-81
2021/05/16 01:14:54;;;;;;;;;;;;;;;12.49;68.60;96361.09;1731900;83;20169;-82
2021/05/16 01:17:18;;;;;;;;;;;;;;;12.50;68.80;96362.75;1729374;83;20162;-78
2021/05/16 01:19:47;;;;;;;;;;;;;;;12.51;68.86;96360.95;1724266;83;20478;-79
2021/05/16 01:22:13;;;;;;;;;;;;;;;12.50;68.95;96370.68;1712695;83;20517;-80
2021/05/16 01:24:43;;;;;;;;;;;;;;;12.52;68.87;96361.30;1730036;83;20165;-80
2021/05/16 01:27:13;;;;;;;;;;;;;;;12.55;69.07;96359.64;1729779;83;20149;-80
2021/05/16 01:29:39;;;;;;;;;;;;;;;12.59;69.18;96362.81;1702969;83;20205;-81
2021/05/16 01:32:11;;;;;;;;;;;;;;;12.63;68.72;96358.38;1700720;84;20462;-80
2021/05/16 01:34:35;;;;;;;;;;;;;;;12.68;68.85;96356.59;1700568;83;20490;-80
2021/05/16 01:37:01;;;;;;;;;;;;;;;12.70;68.58;96354.63;1700537;84;20166;-80
2021/05/16 01:39:27;;;;;;;;;;;;;;;12.65;68.08;96357.74;1672637;86;20136;-80
2021/05/16 01:41:54;;;;;;;;;;;;;;;12.59;68.59;96357.52;1701076;84;20146;-78
2021/05/16 01:44:20;;;;;;;;;;;;;;;12.49;68.19;96352.34;1700683;84;20178;-80
2021/05/16 01:46:46;;;;;;;;;;;;;;;12.45;68.62;96357.11;1700487;84;20169;-80
2021/05/16 01:49:13;;;;;;;;;;;;;;;12.40;69.54;96356.72;1700632;84;20154;-81
2021/05/16 01:51:39;;;;;;;;;;;;;;;12.36;69.23;96360.66;1700473;84;20142;-81
2021/05/16 01:54:07;;;;;;;;;;;;;;;12.29;68.68;96358.30;1700768;84;20166;-78
2021/05/16 01:56:34;;;;;;;;;;;;;;;12.21;69.20;96351.59;1700798;84;20169;-79
2021/05/16 01:59:00;;;;;;;;;;;;;;;12.13;70.22;96355.02;1723379;83;20181;-78
2021/05/16 02:01:28;;;;;;;;;;;;;;;12.08;69.60;96363.86;1729929;83;20142;-79
2021/05/16 02:03:56;;;;;;;;;;;;;;;12.00;69.18;96358.84;1703244;83;20289;-81
2021/05/16 02:06:23;;;;;;;;;;;;;;;11.95;69.26;96354.97;1730110;83;20150;-80
2021/05/16 02:08:51;;;;;;;;;;;;;;;11.91;68.51;96353.12;1729780;83;20185;-79
2021/05/16 02:11:19;;;;;;;;;;;;;;;11.85;68.71;96357.69;1730179;83;20197;-80
2021/05/16 02:13:47;;;;;;;;;;;;;;;11.75;69.49;96353.77;1700943;83;20197;-79
2021/05/16 02:16:14;;;;;;;;;;;;;;;11.67;69.10;96352.37;1700820;84;20229;-80
2021/05/16 02:18:42;;;;;;;;;;;;;;;11.64;68.42;96360.09;1700817;84;20165;-80
2021/05/16 02:21:11;;;;;;;;;;;;;;;11.57;69.45;96364.31;1700788;84;20170;-80
2021/05/16 02:23:39;;;;;;;;;;;;;;;11.51;68.16;96357.81;1700661;84;20190;-80
2021/05/16 02:26:06;;;;;;;;;;;;;;;11.46;69.20;96358.72;1700469;84;20198;-80
2021/05/16 02:28:32;;;;;;;;;;;;;;;11.44;69.55;96358.53;1701064;84;20190;-80
2021/05/16 02:31:01;;;;;;;;;;;;;;;11.39;70.40;96358.98;1681209;84;20155;-79
2021/05/16 02:33:30;;;;;;;;;;;;;;;11.33;69.85;96358.25;1675820;85;20218;-80
2021/05/16 02:35:56;;;;;;;;;;;;;;;11.28;70.66;96353.88;1685418;85;20585;-81
2021/05/16 02:38:22;;;;;;;;;;;;;;;11.22;71.07;96356.14;1695502;84;20198;-80
2021/05/16 02:40:48;;;;;;;;;;;;;;;11.18;70.58;96355.26;1684880;85;20189;-78
2021/05/16 02:43:15;;;;;;;;;;;;;;;11.14;71.42;96356.04;1682800;83;20151;-80
2021/05/16 02:45:41;;;;;;;;;;;;;;;11.10;72.83;96361.25;1701017;83;20198;-79
2021/05/16 02:48:09;;;;;;;;;;;;;;;11.04;71.50;96356.06;1700097;84;20174;-80
2021/05/16 02:50:35;;;;;;;;;;;;;;;11.01;71.50;96360.33;1700889;83;20482;-79
2021/05/16 02:53:03;;;;;;;;;;;;;;;10.92;71.03;96355.41;1700773;84;20507;-80
2021/05/16 02:55:31;;;;;;;;;;;;;;;10.90;71.74;96358.67;1700631;83;20198;-80
2021/05/16 02:57:58;;;;;;;;;;;;;;;10.90;70.51;96357.86;1700906;84;20150;-80
2021/05/16 03:00:26;;;;;;;;;;;;;;;10.90;71.79;96352.08;1701090;84;20166;-79
2021/05/16 03:02:53;;;;;;;;;;;;;;;10.91;71.56;96350.29;1700945;83;20210;-78
2021/05/16 03:05:20;;;;;;;;;;;;;;;10.94;71.63;96345.56;1700606;84;20181;-81
2021/05/16 03:07:47;;;;;;;;;;;;;;;10.95;72.48;96342.42;1700672;84;20153;-80
2021/05/16 03:10:13;;;;;;;;;;;;;;;10.97;71.99;96347.57;1702490;83;20530;-79
2021/05/16 03:12:39;;;;;;;;;;;;;;;11.03;72.70;96345.66;1730211;83;20166;-79
2021/05/16 03:15:08;;;;;;;;;;;;;;;11.09;72.88;96343.29;1729361;83;20166;-77
2021/05/16 03:17:34;;;;;;;;;;;;;;;11.20;72.59;96346.72;1730421;83;20213;-80
2021/05/16 03:20:03;;;;;;;;;;;;;;;11.28;72.33;96343.33;1730221;83;20150;-79
2021/05/16 03:22:31;;;;;;;;;;;;;;;11.38;71.83;96342.80;1730155;83;20189;-78
2021/05/16 03:24:58;;;;;;;;;;;;;;;11.46;72.44;96348.17;1730037;83;20161;-79
2021/05/16 03:27:25;;;;;;;;;;;;;;;11.54;72.10;96355.36;1729970;83;20166;-79
2021/05/16 03:29:51;;;;;;;;;;;;;;;11.60;72.32;96355.27;1730102;83;20162;-80
2021/05/16 03:32:17;;;;;;;;;;;;;;;11.67;71.10;96346.61;1730106;83;20150;-79
2021/05/16 03:34:43;;;;;;;;;;;;;;;11.75;72.38;96345.85;1730163;83;20165;-79
2021/05/16 03:37:09;;;;;;;;;;;;;;;11.80;72.11;96345.41;1730063;83;20162;-79
2021/05/16 03:39:35;;;;;;;;;;;;;;;11.87;71.58;96345.17;1730202;83;20166;-79
2021/05/16 03:42:01;;;;;;;;;;;;;;;11.93;71.33;96349.00;1711158;83;20183;-80
2021/05/16 03:44:27;;;;;;;;;;;;;;;11.99;71.08;96347.12;1701171;83;20173;-78
2021/05/16 03:46:53;;;;;;;;;;;;;;;12.03;70.95;96345.36;1705398;83;20209;-79
2021/05/16 03:49:20;;;;;;;;;;;;;;;12.11;70.43;96347.73;1729980;83;20153;-78
2021/05/16 03:51:46;;;;;;;;;;;;;;;12.12;70.47;96344.11;1729950;83;20193;-79
2021/05/16 03:54:15;;;;;;;;;;;;;;;12.20;70.57;96351.28;1729732;83;20150;-82
2021/05/16 03:56:42;;;;;;;;;;;;;;;12.31;69.65;96349.70;1728641;83;20162;-77
2021/05/16 03:59:08;;;;;;;;;;;;;;;12.54;70.38;96346.59;1729333;83;20182;-80
2021/05/16 04:01:34;;;;;;;;;;;;;;;12.90;69.79;96343.86;1727985;83;20470;-80
2021/05/16 04:04:00;;;;;;;;;;;;;;;13.39;69.57;96343.30;1729213;83;20478;-78
2021/05/16 04:06:26;;;;;;;;;;;;;;;13.91;68.82;96335.67;1729281;83;20150;-79
2021/05/16 04:08:52;;;;;;;;;;;;;;;14.49;67.44;96335.72;1729324;83;20154;-79
2021/05/16 04:11:18;;;;;;;;;;;;;;;15.07;65.56;96334.34;1715962;83;20166;-79
2021/05/16 04:13:45;;;;;;;;;;;;;;;15.70;63.70;96339.73;1700043;84;20154;-81
2021/05/16 04:16:11;;;;;;;;;;;;;;;16.27;62.31;96336.42;1699955;84;20146;-80
2021/05/16 04:18:38;;;;;;;;;;;;;;;16.78;61.65;96331.31;1699917;84;20166;-80
2021/05/16 04:21:05;;;;;;;;;;;;;;;17.19;62.66;96335.41;1699895;84;20178;-80
2021/05/16 04:23:34;;;;;;;;;;;;;;;17.35;58.48;96331.74;1699911;84;20165;-80
2021/05/16 04:26:00;;;;;;;;;;;;;;;17.52;61.79;96324.88;1699920;84;20162;-82
2021/05/16 04:28:26;;;;;;;;;;;;;;;17.55;58.53;96330.66;1699920;84;20186;-79
2021/05/16 04:30:52;;;;;;;;;;;;;;;17.56;56.41;96322.17;1699972;84;20134;-80
2021/05/16 04:33:19;;;;;;;;;;;;;;;17.72;58.87;96323.80;1699986;84;20226;-79
2021/05/16 04:35:46;;;;;;;;;;;;;;;18.03;58.16;96318.23;1698380;84;20174;-80
2021/05/16 04:38:12;;;;;;;;;;;;;;;18.41;56.34;96327.31;1699898;84;20162;-81
2021/05/16 04:40:38;;;;;;;;;;;;;;;18.88;53.76;96320.19;1701779;83;20146;-79
2021/05/16 04:43:04;;;;;;;;;;;;;;;19.36;52.88;96319.46;1700077;83;20158;-80
2021/05/16 04:45:32;;;;;;;;;;;;;;;19.91;50.11;96320.02;1699887;84;20498;-80
2021/05/16 04:48:00;;;;;;;;;;;;;;;20.29;51.82;96324.83;1699890;84;20190;-79
2021/05/16 04:50:28;;;;;;;;;;;;;;;20.24;54.36;96321.42;1699959;83;20157;-80
2021/05/16 04:52:54;;;;;;;;;;;;;;;20.17;49.79;96326.44;1707232;83;20157;-80
2021/05/16 04:55:20;;;;;;;;;;;;;;;20.08;48.02;96331.17;1708207;84;20177;-81
2021/05/16 04:57:47;;;;;;;;;;;;;;;19.91;48.04;96325.36;1708155;84;20166;-81
2021/05/16 05:00:14;;;;;;;;;;;;;;;19.80;53.65;96330.75;1708198;84;20507;-80
2021/05/16 05:02:41;;;;;;;;;;;;;;;19.62;48.91;96328.13;1708203;84;20229;-81
2021/05/16 05:05:08;;;;;;;;;;;;;;;19.53;48.85;96325.80;1708357;84;20165;-81
2021/05/16 05:07:34;;;;;;;;;;;;;;;19.45;53.11;96324.95;1712814;84;20190;-80
2021/05/16 05:10:00;;;;;;;;;;;;;;;19.16;52.94;96318.84;1696778;83;20167;-82
2021/05/16 05:12:27;;;;;;;;;;;;;;;18.90;50.50;96320.78;1704093;83;20155;-78
2021/05/16 05:14:53;;;;;;;;;;;;;;;18.83;52.67;96315.92;1711547;83;20515;-80
2021/05/16 05:17:19;;;;;;;;;;;;;;;18.83;53.38;96316.77;1732258;83;20168;-80
2021/05/16 05:19:45;;;;;;;;;;;;;;;18.98;52.04;96316.66;1732019;83;20152;-80
2021/05/16 05:22:11;;;;;;;;;;;;;;;19.35;52.60;96317.28;1732056;83;20205;-79
2021/05/16 05:24:38;;;;;;;;;;;;;;;19.68;51.69;96315.78;1717768;83;20157;-79
2021/05/16 05:27:04;;;;;;;;;;;;;;;20.09;51.48;96318.11;1702852;83;20142;-80
2021/05/16 05:29:30;;;;;;;;;;;;;;;20.38;50.10;96316.91;1702766;84;20182;-80
2021/05/16 05:31:56;;;;;;;;;;;;;;;20.32;48.60;96317.74;1702884;84;20158;-79
2021/05/16 05:34:25;;;;;;;;;;;;;;;20.05;49.52;96316.86;1702737;84;20154;-80
2021/05/16 05:36:51;;;;;;;;;;;;;;;19.85;48.98;96322.97;1712860;82;20184;-81
2021/05/16 05:39:17;;;;;;;;;;;;;;;19.77;51.51;96321.78;1722287;83;20171;-79
2021/05/16 05:41:44;;;;;;;;;;;;;;;19.40;52.08;96322.55;1730274;83;20159;-80
2021/05/16 05:44:12;;;;;;;;;;;;;;;18.86;51.17;96324.36;1730263;83;20135;-81
2021/05/16 05:46:38;;;;;;;;;;;;;;;18.32;52.38;96328.45;1730393;83;20167;-81
2021/05/16 05:49:04;;;;;;;;;;;;;;;17.97;53.28;96329.63;1730436;83;20171;-79
2021/05/16 05:51:31;;;;;;;;;;;;;;;17.63;54.10;96333.20;1718877;82;20145;-82
2021/05/16 05:53:57;;;;;;;;;;;;;;;17.42;54.88;96337.97;1700316;84;20188;-81
2021/05/16 05:56:23;;;;;;;;;;;;;;;17.09;55.54;96341.02;1701520;84;20148;-88
2021/05/16 05:58:49;;;;;;;;;;;;;;;16.73;56.99;96339.51;1738817;82;20564;-84
2021/05/16 06:01:17;;;;;;;;;;;;;;;16.18;58.91;96344.94;1700498;84;20507;-89
2021/05/16 06:03:45;;;;;;;;;;;;;;;15.76;59.52;96346.99;1700486;84;20168;-84
2021/05/16 06:06:11;;;;;;;;;;;;;;;15.50;60.21;96338.00;1700273;84;20172;-81
2021/05/16 06:08:43;;;;;;;;;;;;;;;15.38;60.39;96341.52;1700152;84;20184;-81
2021/05/16 06:11:05;;;;;;;;;;;;;;;15.20;61.87;96337.78;1699262;84;20461;-80
2021/05/16 06:13:32;;;;;;;;;;;;;;;14.91;62.54;96342.64;1706579;84;20220;-79
2021/05/16 06:15:59;;;;;;;;;;;;;;;14.85;63.31;96340.68;1715223;84;20157;-80
2021/05/16 06:18:25;;;;;;;;;;;;;;;14.77;63.98;96340.70;1715304;84;20208;-80
2021/05/16 06:20:51;;;;;;;;;;;;;;;14.76;62.69;96341.17;1715394;83;20148;-81
2021/05/16 06:23:18;;;;;;;;;;;;;;;14.80;63.34;96340.37;1715380;83;20172;-81
2021/05/16 06:25:47;;;;;;;;;;;;;;;14.91;62.54;96340.50;1715177;83;20165;-81
2021/05/16 06:28:15;;;;;;;;;;;;;;;15.00;62.93;96344.80;1713154;84;20207;-81
2021/05/16 06:30:41;;;;;;;;;;;;;;;15.10;63.27;96335.30;1698163;84;20152;-81
2021/05/16 06:33:07;;;;;;;;;;;;;;;15.15;62.66;96338.30;1697938;84;20168;-79
2021/05/16 06:35:33;;;;;;;;;;;;;;;15.20;62.50;96337.27;1697939;84;20165;-80
2021/05/16 06:38:00;;;;;;;;;;;;;;;15.14;62.90;96337.45;1697920;84;20144;-81
2021/05/16 06:40:26;;;;;;;;;;;;;;;15.05;64.67;96339.80;1697855;84;20164;-80
2021/05/16 06:42:53;;;;;;;;;;;;;;;15.10;63.61;96337.95;1698286;84;20132;-82
2021/05/16 06:45:20;;;;;;;;;;;;;;;15.19;63.83;96340.10;1715005;84;20172;-79
2021/05/16 06:47:46;;;;;;;;;;;;;;;15.25;62.62;96337.59;1715516;84;20227;-82
2021/05/16 06:50:12;;;;;;;;;;;;;;;15.19;63.50;96338.27;1715127;83;20168;-82
2021/05/16 06:52:38;;;;;;;;;;;;;;;15.07;63.40;96331.69;1720605;83;20136;-81
2021/05/16 06:55:05;;;;;;;;;;;;;;;15.05;63.67;96329.18;1725650;83;20480;-81
2021/05/16 06:57:31;;;;;;;;;;;;;;;15.13;63.77;96331.80;1725717;83;20172;-81
2021/05/16 06:59:57;;;;;;;;;;;;;;;15.25;63.21;96326.98;1725838;83;20159;-81
2021/05/16 07:02:24;;;;;;;;;;;;;;;15.38;64.00;96325.59;1725780;83;20164;-81
2021/05/16 07:04:50;;;;;;;;;;;;;;;15.38;62.99;96323.77;1725656;83;20167;-81
2021/05/16 07:07:16;;;;;;;;;;;;;;;15.50;63.52;96321.55;1725741;83;20167;-81
2021/05/16 07:09:42;;;;;;;;;;;;;;;15.80;63.49;96319.57;1725763;83;20164;-81
2021/05/16 07:12:10;;;;;;;;;;;;;;;16.23;63.59;96320.81;1725548;83;20163;-81
2021/05/16 07:14:36;;;;;;;;;;;;;;;16.75;62.53;96321.02;1725534;83;20516;-80
2021/05/16 07:17:02;;;;;;;;;;;;;;;17.24;61.13;96317.06;1726008;83;20479;-81
2021/05/16 07:19:28;;;;;;;;;;;;;;;17.51;59.44;96318.73;1725699;83;20201;-79
2021/05/16 07:21:55;;;;;;;;;;;;;;;17.76;58.45;96316.58;1725536;83;20140;-82
2021/05/16 07:24:21;;;;;;;;;;;;;;;18.02;58.93;96313.91;1725616;83;20167;-79
2021/05/16 07:26:47;;;;;;;;;;;;;;;18.17;56.75;96308.52;1725656;83;20516;-80
2021/05/16 07:29:13;;;;;;;;;;;;;;;18.41;57.72;96303.79;1725727;83;20136;-81
2021/05/16 07:31:39;;;;;;;;;;;;;;;18.63;57.45;96305.92;1725880;83;20493;-81
2021/05/16 07:34:05;;;;;;;;;;;;;;;18.99;57.62;96307.63;1725882;83;20187;-79
2021/05/16 07:36:31;;;;;;;;;;;;;;;19.43;56.90;96314.16;1725669;83;20136;-81
2021/05/16 07:39:00;;;;;;;;;;;;;;;19.84;50.69;96313.80;1725816;83;20183;-80
2021/05/16 07:41:27;;;;;;;;;;;;;;;20.20;50.73;96313.48;1725665;83;20567;-80
2021/05/16 07:43:53;;;;;;;;;;;;;;;20.37;52.57;96311.25;1725560;83;20559;-80
2021/05/16 07:46:19;;;;;;;;;;;;;;;20.58;51.56;96315.58;1725568;83;20471;-80
2021/05/16 07:48:45;;;;;;;;;;;;;;;20.75;48.21;96316.52;1725655;83;20472;-81
2021/05/16 07:51:11;;;;;;;;;;;;;;;20.72;50.61;96320.41;1725703;83;20516;-80
2021/05/16 07:53:37;;;;;;;;;;;;;;;20.56;51.08;96316.81;1717118;83;20475;-83
2021/05/16 07:56:04;;;;;;;;;;;;;;;20.70;51.36;96311.75;1707468;83;20593;-80
2021/05/16 07:58:31;;;;;;;;;;;;;;;20.58;51.06;96324.95;1707292;84;20147;-81
2021/05/16 08:00:57;;;;;;;;;;;;;;;20.46;51.07;96319.91;1708498;83;20171;-80
2021/05/16 08:03:23;;;;;;;;;;;;;;;20.23;49.01;96318.44;1707528;83;20203;-80
2021/05/16 08:05:51;;;;;;;;;;;;;;;20.21;45.85;96321.02;1724840;83;20140;-81
2021/05/16 08:08:17;;;;;;;;;;;;;;;20.17;45.05;96323.77;1724521;83;20219;-81
2021/05/16 08:10:44;;;;;;;;;;;;;;;20.15;44.75;96320.47;1724855;83;20247;-83
2021/05/16 08:13:12;;;;;;;;;;;;;;;20.09;45.74;96326.14;1717637;83;20559;-81
2021/05/16 08:15:39;;;;;;;;;;;;;;;19.79;49.54;96323.75;1708101;83;20196;-81
2021/05/16 08:18:05;;;;;;;;;;;;;;;19.57;51.36;96323.87;1724472;83;20163;-81
2021/05/16 08:20:32;;;;;;;;;;;;;;;19.28;52.17;96322.30;1724656;83;20184;-82
2021/05/16 08:22:58;;;;;;;;;;;;;;;19.08;52.61;96322.16;1724881;83;20160;-82
2021/05/16 08:25:25;;;;;;;;;;;;;;;18.94;53.17;96326.59;1725147;83;20163;-83
2021/05/16 08:27:51;;;;;;;;;;;;;;;18.81;54.44;96321.95;1725157;83;20148;-80
2021/05/16 08:30:18;;;;;;;;;;;;;;;18.71;54.79;96332.46;1725177;83;20496;-81
2021/05/16 08:32:45;;;;;;;;;;;;;;;18.51;55.50;96338.17;1725377;83;20180;-81
2021/05/16 08:35:11;;;;;;;;;;;;;;;18.25;57.05;96329.72;1725466;83;20235;-80
2021/05/16 08:37:37;;;;;;;;;;;;;;;18.03;57.11;96335.55;1725290;83;20136;-82
2021/05/16 08:40:05;;;;;;;;;;;;;;;18.01;57.40;96340.24;1725113;83;20180;-81
2021/05/16 08:42:32;;;;;;;;;;;;;;;17.93;58.09;96341.14;1714137;83;20196;-81
2021/05/16 08:44:58;;;;;;;;;;;;;;;17.69;59.60;96340.16;1699767;83;20196;-81
2021/05/16 08:47:25;;;;;;;;;;;;;;;17.58;60.97;96346.80;1697524;83;20141;-81
2021/05/16 08:49:51;;;;;;;;;;;;;;;17.43;60.16;96341.48;1701687;84;20248;-79
2021/05/16 08:52:20;;;;;;;;;;;;;;;17.31;61.23;96340.61;1705442;82;20193;-82
2021/05/16 08:54:52;;;;;;;;;;;;;;;17.16;61.29;96340.61;1741656;82;20175;-79
2021/05/16 08:57:14;;;;;;;;;;;;;;;16.93;62.91;96339.84;1741722;82;20174;-83
2021/05/16 09:00:06;;;;;;;;;;;;;;;16.84;62.67;96345.22;1741961;82;20457;-78
2021/05/16 09:02:33;;;;;;;;;;;;;;;16.69;64.09;96340.38;1730339;82;20153;-78
2021/05/16 09:04:59;;;;;;;;;;;;;;;16.51;64.01;96338.88;1733357;82;20185;-78
2021/05/16 09:07:31;;;;;;;;;;;;;;;16.39;64.95;96344.28;1700782;83;20155;-79
2021/05/16 09:09:57;;;;;;;;;;;;;;;16.38;64.68;96339.96;1723947;82;20508;-89
2021/05/16 09:12:24;;;;;;;;;;;;;;;16.43;65.67;96336.28;1724431;83;20156;-79
2021/05/16 09:15:01;;;;;;;;;;;;;;;16.56;64.28;96335.67;1750668;81;20168;-87
2021/05/16 09:17:29;;;;;;;;;;;;;;;16.64;63.70;96334.78;1762051;80;20161;-89
2021/05/16 09:20:02;;;;;;;;;;;;;;;16.73;62.33;96331.53;1762925;81;20227;-78
2021/05/16 09:22:42;;;;;;;;;;;;;;;16.83;61.35;96321.45;1756373;81;20160;-85
2021/05/16 09:25:21;;;;;;;;;;;;;;;16.99;60.74;96321.31;1760488;80;20484;-79
2021/05/16 09:27:50;;;;;;;;;;;;;;;17.09;58.55;96318.39;1735007;80;20167;-78
2021/05/16 09:30:23;;;;;;;;;;;;;;;17.19;58.06;96318.11;1731857;82;20476;-76
2021/05/16 09:32:56;;;;;;;;;;;;;;;17.25;57.51;96316.55;1732295;81;20214;-78
2021/05/16 09:35:39;;;;;;;;;;;;;;;17.32;56.93;96312.13;1732109;83;20480;-78
2021/05/16 09:38:14;;;;;;;;;;;;;;;17.41;57.64;96312.34;1732192;83;20512;-78
2021/05/16 09:40:49;;;;;;;;;;;;;;;17.52;57.50;96312.40;1740553;81;20500;-79
2021/05/16 09:43:18;;;;;;;;;;;;;;;17.58;57.44;96302.84;1762879;80;20156;-76
2021/05/16 09:45:47;;;;;;;;;;;;;;;17.58;56.76;96316.97;1762809;80;20196;-79
2021/05/16 09:48:29;;;;;;;;;;;;;;;17.51;57.63;96316.07;1762846;80;20220;-78
2021/05/16 09:51:17;;;;;;;;;;;;;;;17.51;57.71;96319.22;1762746;81;20156;-77
2021/05/16 09:53:59;;;;;;;;;;;;;;;17.46;58.52;96317.12;1756573;80;20222;-77
2021/05/16 09:56:28;;;;;;;;;;;;;;;17.51;58.00;96315.23;1751824;82;20180;-79
2021/05/16 09:58:57;;;;;;;;;;;;;;;17.52;58.26;96316.88;1748567;82;20198;-80
2021/05/16 10:01:25;;;;;;;;;;;;;;;17.53;57.40;96315.88;1729451;82;20236;-78
2021/05/16 10:03:53;;;;;;;;;;;;;;;17.58;58.28;96324.15;1706476;84;20209;-78
2021/05/16 10:06:21;;;;;;;;;;;;;;;17.66;58.58;96320.05;1706471;83;20217;-79
2021/05/16 10:08:48;;;;;;;;;;;;;;;17.75;57.69;96307.42;1706424;84;20213;-82
2021/05/16 10:11:17;;;;;;;;;;;;;;;17.83;58.03;96312.63;1706438;84;20233;-79
2021/05/16 10:13:56;;;;;;;;;;;;;;;17.97;56.54;96312.81;1706348;84;20488;-76
2021/05/16 10:16:23;;;;;;;;;;;;;;;18.12;58.20;96310.09;1706402;83;20177;-78
2021/05/16 10:18:51;;;;;;;;;;;;;;;18.32;58.07;96303.12;1706268;84;20513;-79
2021/05/16 10:21:17;;;;;;;;;;;;;;;18.59;58.57;96312.67;1706114;84;20157;-77
2021/05/16 10:23:43;;;;;;;;;;;;;;;18.82;57.59;96308.92;1740775;82;20169;-78
2021/05/16 10:26:18;;;;;;;;;;;;;;;18.96;57.29;96306.70;1755395;82;20817;-76
2021/05/16 10:29:02;;;;;;;;;;;;;;;19.16;57.01;96298.80;1751630;82;20149;-78
2021/05/16 10:31:50;;;;;;;;;;;;;;;19.45;57.08;96301.40;1729459;82;20189;-79
2021/05/16 10:34:29;;;;;;;;;;;;;;;19.85;57.18;96305.59;1706301;83;20205;-78
2021/05/16 10:36:56;;;;;;;;;;;;;;;20.31;56.10;96302.71;1749458;82;20204;-78
2021/05/16 10:39:46;;;;;;;;;;;;;;;20.74;56.19;96304.19;1751867;82;20201;-79
2021/05/16 10:42:17;;;;;;;;;;;;;;;21.13;53.40;96305.14;1751724;82;20169;-78
2021/05/16 10:45:02;;;;;;;;;;;;;;;21.49;53.26;96297.09;1751208;82;20184;-82
2021/05/16 10:47:47;;;;;;;;;;;;;;;21.68;50.88;96292.73;1752044;82;20505;-78
2021/05/16 10:50:26;;;;;;;;;;;;;;;21.72;52.44;96293.12;1748089;82;20168;-78
2021/05/16 10:52:57;;;;;;;;;;;;;;;21.74;52.53;96296.42;1721656;81;20152;-82
2021/05/16 10:55:26;;;;;;;;;;;;;;;21.79;48.84;96292.56;1711355;82;20477;-83
2021/05/16 10:57:53;;;;;;;;;;;;;;;21.80;50.64;96287.51;1711528;83;20164;-78
2021/05/16 11:00:26;;;;;;;;;;;;;;;21.77;50.19;96286.59;1711208;84;20152;-77
2021/05/16 11:03:11;;;;;;;;;;;;;;;21.73;50.09;96284.05;1690224;83;20144;-77
2021/05/16 11:05:47;;;;;;;;;;;;;;;21.60;49.71;96278.73;1704754;83;20165;-74
2021/05/16 11:08:18;;;;;;;;;;;;;;;21.63;51.04;96285.02;1709452;82;20564;-79
2021/05/16 11:10:47;;;;;;;;;;;;;;;21.77;51.27;96278.54;1685308;83;20505;-84
2021/05/16 11:13:14;;;;;;;;;;;;;;;21.95;50.34;96273.81;1682504;85;20193;-87
2021/05/16 11:15:51;;;;;;;;;;;;;;;22.04;50.30;96271.67;1679167;85;20135;-79
2021/05/16 11:18:18;;;;;;;;;;;;;;;22.12;48.79;96271.94;1723353;82;20176;-79
2021/05/16 11:20:50;;;;;;;;;;;;;;;22.13;44.17;96269.03;1711948;82;20204;-79
2021/05/16 11:23:33;;;;;;;;;;;;;;;22.16;47.09;96265.12;1746361;82;20173;-77
2021/05/16 11:26:04;;;;;;;;;;;;;;;22.25;45.45;96264.31;1703527;82;20208;-78
2021/05/16 11:28:32;;;;;;;;;;;;;;;22.37;43.99;96254.53;1639072;86;20213;-78
2021/05/16 11:31:00;;;;;;;;;;;;;;;22.53;46.23;96255.88;1604628;86;20163;-76
2021/05/16 11:33:31;;;;;;;;;;;;;;;22.65;46.27;96257.82;1611762;86;20200;-79
2021/05/16 11:36:06;;;;;;;;;;;;;;;22.82;43.70;96250.03;1609569;86;20183;-77
2021/05/16 11:38:35;;;;;;;;;;;;;;;23.05;46.38;96251.56;1609679;88;20199;-78
2021/05/16 11:41:02;;;;;;;;;;;;;;;23.24;44.42;96244.33;1613108;86;20163;-78
2021/05/16 11:43:31;;;;;;;;;;;;;;;23.39;41.53;96245.30;1627774;86;20172;-79
2021/05/16 11:45:59;;;;;;;;;;;;;;;23.47;41.16;96247.38;1613498;86;20168;-76
2021/05/16 11:48:32;;;;;;;;;;;;;;;23.51;44.99;96254.77;1641949;86;20200;-78
2021/05/16 11:51:17;;;;;;;;;;;;;;;23.44;42.31;96254.54;1613986;86;20207;-78
2021/05/16 11:53:50;;;;;;;;;;;;;;;23.38;44.20;96256.29;1649204;86;20167;-78
2021/05/16 11:56:18;;;;;;;;;;;;;;;23.20;43.86;96263.28;1655860;86;20489;-77
2021/05/16 11:58:56;;;;;;;;;;;;;;;22.75;45.46;96278.29;1642226;86;20581;-77
2021/05/16 12:01:22;;;;;;;;;;;;;;;22.30;45.08;96274.70;1634744;86;20189;-77
2021/05/16 12:03:59;;;;;;;;;;;;;;;22.11;46.51;96277.84;1657829;86;20525;-77
2021/05/16 12:06:30;;;;;;;;;;;;;;;22.00;47.74;96279.34;1704019;81;20151;-77
2021/05/16 12:09:11;;;;;;;;;;;;;;;21.86;48.00;96283.66;1722104;82;20159;-78
2021/05/16 12:11:39;;;;;;;;;;;;;;;21.65;47.99;96296.36;1684245;85;20200;-80
2021/05/16 12:14:13;;;;;;;;;;;;;;;21.40;48.46;96296.22;1677921;84;20176;-77
2021/05/16 12:16:40;;;;;;;;;;;;;;;21.25;48.95;96303.16;1729771;81;20220;-78
2021/05/16 12:19:07;;;;;;;;;;;;;;;21.02;48.92;96311.16;1724445;82;20731;-77
2021/05/16 12:21:37;;;;;;;;;;;;;;;20.85;49.47;96316.93;1721877;83;20588;-78
2021/05/16 12:24:06;;;;;;;;;;;;;;;20.75;49.98;96330.75;1741452;81;20158;-77
2021/05/16 12:26:35;;;;;;;;;;;;;;;20.68;50.30;96329.06;1756727;81;20165;-79
2021/05/16 12:29:01;;;;;;;;;;;;;;;20.57;50.77;96337.20;1729398;81;20198;-79
2021/05/16 12:31:31;;;;;;;;;;;;;;;20.40;51.18;96340.78;1722044;83;20496;-78
2021/05/16 12:34:04;;;;;;;;;;;;;;;20.19;51.78;96340.45;1724395;82;20191;-79
2021/05/16 12:36:58;;;;;;;;;;;;;;;19.89;51.44;96349.64;1721979;83;20215;-78
2021/05/16 12:39:40;;;;;;;;;;;;;;;19.55;51.78;96345.95;1722147;83;20188;-80
2021/05/16 12:42:37;;;;;;;;;;;;;;;18.96;52.55;96332.56;1722776;82;20172;-79
2021/05/16 12:45:21;;;;;;;;;;;;;;;18.71;52.71;96367.16;1699797;83;20139;-79
2021/05/16 12:48:12;;;;;;;;;;;;;;;18.29;53.69;96380.00;1722569;82;20500;-78
2021/05/16 12:50:45;;;;;;;;;;;;;;;17.99;54.91;96392.11;1724675;80;20188;-79
2021/05/16 12:53:29;;;;;;;;;;;;;;;17.71;54.69;96399.44;1722299;82;20224;-79
2021/05/16 12:55:59;;;;;;;;;;;;;;;17.37;55.41;96412.30;1704785;82;20547;-80